createdAt,value
2023-05-05T00:00:11.065Z,20.45
2023-05-05T00:02:40.751Z,20.44
2023-05-05T00:05:10.205Z,20.43
2023-05-05T00:07:37.688Z,20.44
2023-05-05T00:10:11.010Z,20.43
2023-05-05T00:12:44.383Z,20.42
2023-05-05T00:15:19.929Z,20.41
2023-05-05T00:17:46.952Z,20.40
2023-05-05T00:20:16.969Z,20.40
2023-05-05T00:22:46.668Z,20.40
2023-05-05T00:25:14.293Z,20.42
2023-05-05T00:27:46.376Z,20.41
2023-05-05T00:30:13.278Z,20.38
2023-05-05T00:32:40.960Z,20.39
2023-05-05T00:35:15.638Z,20.38
2023-05-05T00:37:47.224Z,20.39
2023-05-05T00:40:16.859Z,20.37
2023-05-05T00:42:50.642Z,20.38
2023-05-05T00:45:21.190Z,20.37
2023-05-05T00:47:57.258Z,20.37
2023-05-05T00:50:29.076Z,20.37
2023-05-05T00:53:04.395Z,20.35
2023-05-05T00:55:38.364Z,20.36
2023-05-05T00:58:12.491Z,20.36
2023-05-05T01:00:44.365Z,20.35
2023-05-05T01:03:11.559Z,20.34
2023-05-05T01:06:04.834Z,20.35
2023-05-05T01:08:45.971Z,20.34
2023-05-05T01:11:20.056Z,20.34
2023-05-05T01:13:50.041Z,20.33
2023-05-05T01:16:29.804Z,20.33
2023-05-05T01:18:59.834Z,20.33
2023-05-05T01:21:31.508Z,20.32
2023-05-05T01:24:10.940Z,20.30
2023-05-05T01:26:47.427Z,20.30
2023-05-05T01:29:33.186Z,20.31
2023-05-05T01:32:07.445Z,20.31
2023-05-05T01:34:48.418Z,20.28
2023-05-05T01:37:23.335Z,20.29
2023-05-05T01:39:58.125Z,20.31
2023-05-05T01:42:29.555Z,20.29
2023-05-05T01:45:01.817Z,20.28
2023-05-05T01:47:34.708Z,20.27
2023-05-05T01:50:02.280Z,20.27
2023-05-05T01:52:33.974Z,20.27
2023-05-05T01:55:06.667Z,20.26
2023-05-05T01:57:34.725Z,20.27
2023-05-05T02:00:24.899Z,20.27
2023-05-05T02:02:59.089Z,20.26
2023-05-05T02:05:30.956Z,20.26
2023-05-05T02:08:07.564Z,20.26
2023-05-05T02:10:35.199Z,20.23
2023-05-05T02:13:05.548Z,20.25
2023-05-05T02:15:35.953Z,20.24
2023-05-05T02:18:06.080Z,20.25
2023-05-05T02:20:33.741Z,20.24
2023-05-05T02:23:00.932Z,20.24
2023-05-05T02:25:33.398Z,20.24
2023-05-05T02:28:00.902Z,20.24
2023-05-05T02:30:33.209Z,20.23
2023-05-05T02:33:13.313Z,20.23
2023-05-05T02:35:40.977Z,20.22
2023-05-05T02:38:13.478Z,20.22
2023-05-05T02:40:42.684Z,20.22
2023-05-05T02:43:10.968Z,20.23
2023-05-05T02:45:38.218Z,20.23
2023-05-05T02:48:11.558Z,20.21
2023-05-05T02:50:44.472Z,20.22
2023-05-05T02:53:14.413Z,20.22
2023-05-05T02:55:50.610Z,20.21
2023-05-05T02:58:24.817Z,20.19
2023-05-05T03:01:03.774Z,20.18
2023-05-05T03:03:46.972Z,20.18
2023-05-05T03:06:23.168Z,20.19
2023-05-05T03:08:56.674Z,20.19
2023-05-05T03:11:26.601Z,20.18
2023-05-05T03:14:01.607Z,20.19
2023-05-05T03:16:32.600Z,20.19
2023-05-05T03:19:15.639Z,20.17
2023-05-05T03:21:45.770Z,20.16
2023-05-05T03:24:22.278Z,20.18
2023-05-05T03:26:52.813Z,20.16
2023-05-05T03:29:23.014Z,20.16
2023-05-05T03:31:53.478Z,20.17
2023-05-05T03:34:22.706Z,20.16
2023-05-05T03:36:52.574Z,20.15
2023-05-05T03:39:28.335Z,20.17
2023-05-05T03:41:55.290Z,20.14
2023-05-05T03:44:25.605Z,20.14
2023-05-05T03:46:52.505Z,20.13
2023-05-05T03:49:23.873Z,20.11
2023-05-05T03:51:55.300Z,20.11
2023-05-05T03:54:22.417Z,20.11
2023-05-05T03:56:52.748Z,20.12
2023-05-05T03:59:25.578Z,20.08
2023-05-05T04:02:03.144Z,20.10
2023-05-05T04:04:30.063Z,20.09
2023-05-05T04:07:00.256Z,20.09
2023-05-05T04:09:27.587Z,20.09
2023-05-05T04:11:54.888Z,20.11
2023-05-05T04:14:22.162Z,20.14
2023-05-05T04:16:54.375Z,20.20
2023-05-05T04:19:23.123Z,20.24
2023-05-05T04:21:49.830Z,20.28
2023-05-05T04:24:19.580Z,20.29
2023-05-05T04:26:46.289Z,20.31
2023-05-05T04:29:15.606Z,20.33
2023-05-05T04:31:42.615Z,20.34
2023-05-05T04:34:10.425Z,20.36
2023-05-05T04:36:37.419Z,20.37
2023-05-05T04:39:04.451Z,20.37
2023-05-05T04:41:31.559Z,20.37
2023-05-05T04:44:01.434Z,20.37
2023-05-05T04:46:33.922Z,20.36
2023-05-05T04:49:02.469Z,20.33
2023-05-05T04:51:34.505Z,20.32
2023-05-05T04:54:04.926Z,20.30
2023-05-05T04:56:33.091Z,20.28
2023-05-05T04:59:02.835Z,20.27
2023-05-05T05:01:37.756Z,20.24
2023-05-05T05:04:09.971Z,20.23
2023-05-05T05:06:40.559Z,20.22
2023-05-05T05:09:13.273Z,20.23
2023-05-05T05:11:43.453Z,20.22
2023-05-05T05:14:12.744Z,20.24
2023-05-05T05:16:42.983Z,20.30
2023-05-05T05:19:10.189Z,20.31
2023-05-05T05:21:37.496Z,20.30
2023-05-05T05:24:10.249Z,20.33
2023-05-05T05:26:43.175Z,20.36
2023-05-05T05:29:23.289Z,20.37
2023-05-05T05:31:53.571Z,20.42
2023-05-05T05:34:23.617Z,20.43
2023-05-05T05:36:57.937Z,20.43
2023-05-05T05:39:27.758Z,20.43
2023-05-05T05:42:05.607Z,20.31
2023-05-05T05:44:35.403Z,20.18
2023-05-05T05:47:06.697Z,20.08
2023-05-05T05:49:41.879Z,19.99
2023-05-05T05:52:15.142Z,19.91
2023-05-05T05:54:45.164Z,19.85
2023-05-05T05:57:17.117Z,19.80
2023-05-05T05:59:55.344Z,19.74
2023-05-05T06:02:25.821Z,19.71
2023-05-05T06:04:58.927Z,19.66
2023-05-05T06:07:29.143Z,19.62
2023-05-05T06:10:14.418Z,19.59
2023-05-05T06:12:54.219Z,19.56
2023-05-05T06:15:21.199Z,19.48
2023-05-05T06:17:52.622Z,19.51
2023-05-05T06:20:28.311Z,19.57
2023-05-05T06:22:58.379Z,19.66
2023-05-05T06:25:29.541Z,19.72
2023-05-05T06:27:59.338Z,19.74
2023-05-05T06:30:26.232Z,19.81
2023-05-05T06:32:56.059Z,19.86
2023-05-05T06:35:34.396Z,19.91
2023-05-05T06:38:04.514Z,19.93
2023-05-05T06:40:33.018Z,19.90
2023-05-05T06:42:59.725Z,19.90
2023-05-05T06:45:26.590Z,19.92
2023-05-05T06:47:57.406Z,19.90
2023-05-05T06:50:24.779Z,19.93
2023-05-05T06:52:56.539Z,19.94
2023-05-05T06:55:26.653Z,19.97
2023-05-05T06:57:58.551Z,19.99
2023-05-05T07:00:25.441Z,19.99
2023-05-05T07:02:52.262Z,19.96
2023-05-05T07:05:24.915Z,19.98
2023-05-05T07:08:05.595Z,19.99
2023-05-05T07:10:35.206Z,20.00
2023-05-05T07:13:05.213Z,20.00
2023-05-05T07:15:37.888Z,20.02
2023-05-05T07:18:04.888Z,19.97
2023-05-05T07:20:32.539Z,20.00
2023-05-05T07:23:04.885Z,19.99
2023-05-05T07:25:32.448Z,20.03
2023-05-05T07:28:08.195Z,20.04
2023-05-05T07:30:37.030Z,20.00
2023-05-05T07:33:09.623Z,20.01
2023-05-05T07:35:41.783Z,20.03
2023-05-05T07:38:11.684Z,20.02
2023-05-05T07:40:41.604Z,20.05
2023-05-05T07:43:11.720Z,20.08
2023-05-05T07:45:41.450Z,20.13
2023-05-05T07:48:11.854Z,20.14
2023-05-05T07:50:41.083Z,20.15
2023-05-05T07:53:14.743Z,20.17
2023-05-05T07:55:45.698Z,20.17
2023-05-05T07:58:12.596Z,20.19
2023-05-05T08:00:41.179Z,20.20
2023-05-05T08:03:11.663Z,20.20
2023-05-05T08:05:38.975Z,20.19
2023-05-05T08:08:06.153Z,20.22
2023-05-05T08:10:36.458Z,20.22
2023-05-05T08:13:06.356Z,20.24
2023-05-05T08:15:35.904Z,20.22
2023-05-05T08:18:03.653Z,20.20
2023-05-05T08:20:30.878Z,20.18
2023-05-05T08:23:00.710Z,20.16
2023-05-05T08:25:30.772Z,20.13
2023-05-05T08:28:06.917Z,20.13
2023-05-05T08:30:42.829Z,20.12
2023-05-05T08:33:09.651Z,20.10
2023-05-05T08:35:38.989Z,20.13
2023-05-05T08:38:09.359Z,20.14
2023-05-05T08:40:41.063Z,20.12
2023-05-05T08:43:08.105Z,20.14
2023-05-05T08:45:38.015Z,20.16
2023-05-05T08:48:08.057Z,20.13
2023-05-05T08:50:37.295Z,20.14
2023-05-05T08:53:12.041Z,20.14
2023-05-05T08:55:50.649Z,20.15
2023-05-05T08:58:30.670Z,20.13
2023-05-05T09:00:58.077Z,20.15
2023-05-05T09:03:27.859Z,20.14
2023-05-05T09:05:54.779Z,20.16
2023-05-05T09:08:22.388Z,20.15
2023-05-05T09:10:51.371Z,20.17
2023-05-05T09:13:24.764Z,20.17
2023-05-05T09:15:51.519Z,20.18
2023-05-05T09:18:24.452Z,20.17
2023-05-05T09:20:51.695Z,20.17
2023-05-05T09:23:20.284Z,20.16
2023-05-05T09:26:02.204Z,20.16
2023-05-05T09:28:30.698Z,20.17
2023-05-05T09:31:17.588Z,20.17
2023-05-05T09:33:44.470Z,20.18
2023-05-05T09:36:17.900Z,20.20
2023-05-05T09:39:05.513Z,20.19
2023-05-05T09:41:41.420Z,20.18
2023-05-05T09:44:09.068Z,20.19
2023-05-05T09:46:38.798Z,20.18
2023-05-05T09:49:19.771Z,20.17
2023-05-05T09:51:49.758Z,20.18
2023-05-05T09:54:42.683Z,20.18
2023-05-05T09:57:09.778Z,20.18
2023-05-05T09:59:42.552Z,20.18
2023-05-05T10:02:18.757Z,20.18
2023-05-05T10:04:45.811Z,20.18
2023-05-05T10:07:23.752Z,20.18
2023-05-05T10:09:55.180Z,20.20
2023-05-05T10:12:22.577Z,20.20
2023-05-05T10:14:50.754Z,20.21
2023-05-05T10:17:20.697Z,20.21
2023-05-05T10:19:52.525Z,20.21
2023-05-05T10:22:23.068Z,20.21
2023-05-05T10:24:55.971Z,20.20
2023-05-05T10:27:27.339Z,20.22
2023-05-05T10:29:56.724Z,20.24
2023-05-05T10:35:06.305Z,20.27
2023-05-05T10:37:37.044Z,20.28
2023-05-05T10:40:10.004Z,20.29
2023-05-05T10:42:39.047Z,20.28
2023-05-05T10:45:09.321Z,20.30
2023-05-05T10:47:41.885Z,20.30
2023-05-05T10:50:18.973Z,20.30
2023-05-05T10:52:47.339Z,20.29
2023-05-05T10:55:22.925Z,20.31
2023-05-05T10:57:53.187Z,20.31
2023-05-05T11:00:37.981Z,20.32
2023-05-05T11:03:17.223Z,20.32
2023-05-05T11:06:02.490Z,20.32
2023-05-05T11:08:30.408Z,20.33
2023-05-05T11:11:00.592Z,20.32
2023-05-05T11:13:30.488Z,20.32
2023-05-05T11:15:58.405Z,20.31
2023-05-05T11:18:30.115Z,20.31
2023-05-05T11:21:07.279Z,20.29
2023-05-05T11:23:33.962Z,20.28
2023-05-05T11:26:06.720Z,20.31
2023-05-05T11:28:33.596Z,20.34
2023-05-05T11:31:03.186Z,20.33
2023-05-05T11:33:39.036Z,20.34
2023-05-05T11:36:07.018Z,20.34
2023-05-05T11:38:46.051Z,20.33
2023-05-05T11:41:38.458Z,20.34
2023-05-05T11:44:11.148Z,20.35
2023-05-05T11:46:42.973Z,20.35
2023-05-05T11:49:10.869Z,20.34
2023-05-05T11:51:43.558Z,20.35
2023-05-05T11:54:14.489Z,20.36
2023-05-05T11:56:50.684Z,20.37
2023-05-05T11:59:20.974Z,20.35
2023-05-05T12:01:48.002Z,20.35
2023-05-05T12:04:19.044Z,20.35
2023-05-05T12:06:50.178Z,20.34
2023-05-05T12:09:20.966Z,20.34
2023-05-05T12:12:00.014Z,20.35
2023-05-05T12:14:32.973Z,20.35
2023-05-05T12:17:00.728Z,20.35
2023-05-05T12:19:30.553Z,20.35
2023-05-05T12:22:00.170Z,20.35
2023-05-05T12:24:33.528Z,20.35
2023-05-05T12:27:09.865Z,20.35
2023-05-05T12:29:39.708Z,20.35
2023-05-05T12:32:09.266Z,20.33
2023-05-05T12:34:36.034Z,20.34
2023-05-05T12:37:05.829Z,20.34
2023-05-05T12:39:38.892Z,20.34
2023-05-05T12:42:05.953Z,20.35
2023-05-05T12:44:36.728Z,20.35
2023-05-05T12:47:03.936Z,20.36
2023-05-05T12:49:51.695Z,20.37
2023-05-05T12:52:22.022Z,20.37
2023-05-05T12:54:59.153Z,20.38
2023-05-05T12:57:26.774Z,20.37
2023-05-05T12:59:53.806Z,20.38
2023-05-05T13:02:33.602Z,20.39
2023-05-05T13:05:03.272Z,20.39
2023-05-05T13:07:30.445Z,20.39
2023-05-05T13:10:07.327Z,20.39
2023-05-05T13:12:37.046Z,20.40
2023-05-05T13:15:10.313Z,20.38
2023-05-05T13:17:37.213Z,20.39
2023-05-05T13:20:07.223Z,20.39
2023-05-05T13:22:37.323Z,20.41
2023-05-05T13:25:04.510Z,20.40
2023-05-05T13:27:37.245Z,20.41
2023-05-05T13:30:09.115Z,20.42
2023-05-05T13:32:39.014Z,20.42
2023-05-05T13:35:06.094Z,20.43
2023-05-05T13:37:36.250Z,20.43
2023-05-05T13:40:07.519Z,20.43
2023-05-05T13:42:41.128Z,20.43
2023-05-05T13:45:08.517Z,20.44
2023-05-05T13:47:40.588Z,20.43
2023-05-05T13:50:11.970Z,20.42
2023-05-05T13:52:39.557Z,20.44
2023-05-05T13:55:10.509Z,20.44
2023-05-05T13:57:37.510Z,20.45
2023-05-05T14:00:10.445Z,20.45
2023-05-05T14:02:37.199Z,20.44
2023-05-05T14:05:04.091Z,20.44
2023-05-05T14:07:37.416Z,20.45
2023-05-05T14:10:10.668Z,20.47
2023-05-05T14:12:38.389Z,20.53
2023-05-05T14:15:05.694Z,20.47
2023-05-05T14:17:35.937Z,20.48
2023-05-05T14:20:08.412Z,20.49
2023-05-05T14:22:39.343Z,20.52
2023-05-05T14:25:06.432Z,20.54
2023-05-05T14:27:37.145Z,20.57
2023-05-05T14:30:04.155Z,20.59
2023-05-05T14:32:30.992Z,20.64
2023-05-05T14:35:03.881Z,20.66
2023-05-05T14:37:36.561Z,20.66
2023-05-05T14:40:09.259Z,20.67
2023-05-05T14:42:39.013Z,20.69
2023-05-05T14:45:08.878Z,20.71
2023-05-05T14:47:42.567Z,20.73
2023-05-05T14:50:12.294Z,20.76
2023-05-05T14:52:39.039Z,20.74
2023-05-05T14:55:09.189Z,20.77
2023-05-05T14:57:36.623Z,20.79
2023-05-05T15:00:07.081Z,20.79
2023-05-05T15:02:38.569Z,20.82
2023-05-05T15:05:08.223Z,20.83
2023-05-05T15:07:38.037Z,20.83
2023-05-05T15:10:10.822Z,20.84
2023-05-05T15:12:41.834Z,20.88
2023-05-05T15:15:18.412Z,20.88
2023-05-05T15:17:47.099Z,20.88
2023-05-05T15:20:17.266Z,20.90
2023-05-05T15:22:48.987Z,20.91
2023-05-05T15:25:22.085Z,20.89
2023-05-05T15:27:48.827Z,20.91
2023-05-05T15:30:15.606Z,20.90
2023-05-05T15:32:45.574Z,20.90
2023-05-05T15:35:13.675Z,20.89
2023-05-05T15:37:49.181Z,20.88
2023-05-05T15:40:16.786Z,20.86
2023-05-05T15:42:49.811Z,20.86
2023-05-05T15:45:18.057Z,20.86
2023-05-05T15:47:50.559Z,20.85
2023-05-05T15:50:17.274Z,20.83
2023-05-05T15:52:45.108Z,20.83
2023-05-05T15:55:18.420Z,20.81
2023-05-05T15:57:45.236Z,20.85
2023-05-05T16:00:14.887Z,20.87
2023-05-05T16:02:42.187Z,20.87
2023-05-05T16:05:12.271Z,20.91
2023-05-05T16:07:45.210Z,20.90
2023-05-05T16:10:21.515Z,20.93
2023-05-05T16:12:51.526Z,20.95
2023-05-05T16:15:21.444Z,20.98
2023-05-05T16:17:51.263Z,20.99
2023-05-05T16:20:20.888Z,21.00
2023-05-05T16:22:53.720Z,21.00
2023-05-05T16:25:22.342Z,21.02
2023-05-05T16:27:52.841Z,21.02
2023-05-05T16:30:23.124Z,21.02
2023-05-05T16:32:50.269Z,21.01
2023-05-05T16:35:21.084Z,21.01
2023-05-05T16:37:50.605Z,20.98
2023-05-05T16:40:20.240Z,20.99
2023-05-05T16:42:47.081Z,20.95
2023-05-05T16:45:17.346Z,20.92
2023-05-05T16:47:47.093Z,20.95
2023-05-05T16:50:14.684Z,20.94
2023-05-05T16:52:45.287Z,20.94
2023-05-05T16:55:18.572Z,20.94
2023-05-05T16:57:48.597Z,20.95
2023-05-05T17:00:19.636Z,20.96
2023-05-05T17:02:49.930Z,20.97
2023-05-05T17:05:16.855Z,20.98
2023-05-05T17:07:49.739Z,21.01
2023-05-05T17:10:22.893Z,21.02
2023-05-05T17:12:52.713Z,21.07
2023-05-05T17:15:21.761Z,21.06
2023-05-05T17:17:50.908Z,21.06
2023-05-05T17:20:18.179Z,21.11
2023-05-05T17:22:45.062Z,21.09
2023-05-05T17:25:14.856Z,21.10
2023-05-05T17:27:48.215Z,21.09
2023-05-05T17:30:15.023Z,21.07
2023-05-05T17:32:45.103Z,21.08
2023-05-05T17:35:16.323Z,21.05
2023-05-05T17:37:48.637Z,21.08
2023-05-05T17:40:18.815Z,21.05
2023-05-05T17:42:46.097Z,21.05
2023-05-05T17:45:16.462Z,21.04
2023-05-05T17:47:44.003Z,20.99
2023-05-05T17:50:16.387Z,21.02
2023-05-05T17:52:43.204Z,21.03
2023-05-05T17:55:14.962Z,21.04
2023-05-05T17:57:42.590Z,21.04
2023-05-05T18:00:12.913Z,21.04
2023-05-05T18:02:42.651Z,21.02
2023-05-05T18:05:12.364Z,20.99
2023-05-05T18:07:39.144Z,20.99
2023-05-05T18:10:11.592Z,20.98
2023-05-05T18:12:38.628Z,20.96
2023-05-05T18:15:06.243Z,20.95
2023-05-05T18:17:36.247Z,20.95
2023-05-05T18:20:07.041Z,20.96
2023-05-05T18:22:38.475Z,21.01
2023-05-05T18:25:09.487Z,21.02
2023-05-05T18:27:39.573Z,21.01
2023-05-05T18:30:11.033Z,21.03
2023-05-05T18:32:40.675Z,21.04
2023-05-05T18:35:15.564Z,21.05
2023-05-05T18:37:48.688Z,21.06
2023-05-05T18:40:18.751Z,21.07
2023-05-05T18:42:51.539Z,21.05
2023-05-05T18:45:24.993Z,21.04
2023-05-05T18:47:55.135Z,21.06
2023-05-05T18:50:25.316Z,21.04
2023-05-05T18:52:59.415Z,21.04
2023-05-05T18:55:29.348Z,21.03
2023-05-05T18:58:00.166Z,21.02
2023-05-05T19:00:30.021Z,20.99
2023-05-05T19:02:57.606Z,21.00
2023-05-05T19:05:27.543Z,20.95
2023-05-05T19:07:54.893Z,20.96
2023-05-05T19:10:25.172Z,20.97
2023-05-05T19:12:57.799Z,20.96
2023-05-05T19:15:26.571Z,20.96
2023-05-05T19:17:54.236Z,20.97
2023-05-05T19:20:21.619Z,20.97
2023-05-05T19:22:51.977Z,20.94
2023-05-05T19:25:25.349Z,20.92
2023-05-05T19:27:52.103Z,20.92
2023-05-05T19:30:19.030Z,20.92
2023-05-05T19:32:48.462Z,20.94
2023-05-05T19:35:18.621Z,20.96
2023-05-05T19:37:53.298Z,20.96
2023-05-05T19:40:23.026Z,20.96
2023-05-05T19:42:49.939Z,20.95
2023-05-05T19:45:19.495Z,20.94
2023-05-05T19:47:46.478Z,20.95
2023-05-05T19:50:16.938Z,20.90
2023-05-05T19:52:51.599Z,20.92
2023-05-05T19:55:21.775Z,20.92
2023-05-05T19:57:53.814Z,20.91
2023-05-05T20:00:23.547Z,20.91
2023-05-05T20:02:51.795Z,20.92
2023-05-05T20:05:24.133Z,20.92
2023-05-05T20:07:57.259Z,20.92
2023-05-05T20:10:24.035Z,20.89
2023-05-05T20:12:53.806Z,20.90
2023-05-05T20:15:25.365Z,20.90
2023-05-05T20:17:55.356Z,20.91
2023-05-05T20:20:22.720Z,20.91
2023-05-05T20:22:50.310Z,20.90
2023-05-05T20:25:22.690Z,20.88
2023-05-05T20:27:49.409Z,20.91
2023-05-05T20:30:16.702Z,20.92
2023-05-05T20:32:49.236Z,20.88
2023-05-05T20:35:16.572Z,20.88
2023-05-05T20:37:49.615Z,20.86
2023-05-05T20:40:20.797Z,20.84
2023-05-05T20:42:53.776Z,20.85
2023-05-05T20:45:24.342Z,20.83
2023-05-05T20:47:54.098Z,20.82
2023-05-05T20:50:24.125Z,20.81
2023-05-05T20:52:53.799Z,20.79
2023-05-05T20:55:22.025Z,20.80
2023-05-05T20:57:49.230Z,20.79
2023-05-05T21:00:16.125Z,20.77
2023-05-05T21:02:45.628Z,20.78
2023-05-05T21:05:12.643Z,20.76
2023-05-05T21:07:41.081Z,20.76
2023-05-05T21:10:08.296Z,20.76
2023-05-05T21:12:35.420Z,20.75
2023-05-05T21:15:05.184Z,20.74
2023-05-05T21:17:31.945Z,20.75
2023-05-05T21:19:59.918Z,20.73
2023-05-05T21:22:26.635Z,20.72
2023-05-05T21:24:54.104Z,20.73
2023-05-05T21:27:21.026Z,20.73
2023-05-05T21:29:52.572Z,20.73
2023-05-05T21:32:22.527Z,20.72
2023-05-05T21:34:51.088Z,20.71
2023-05-05T21:37:20.876Z,20.70
2023-05-05T21:39:50.826Z,20.72
2023-05-05T21:42:20.139Z,20.69
2023-05-05T21:44:51.806Z,20.70
2023-05-05T21:47:22.053Z,20.70
2023-05-05T21:49:51.700Z,20.68
2023-05-05T21:52:24.439Z,20.69
2023-05-05T21:54:56.878Z,20.67
2023-05-05T21:57:23.690Z,20.68
2023-05-05T21:59:53.645Z,20.67
2023-05-05T22:02:23.946Z,20.67
2023-05-05T22:04:54.575Z,20.67
2023-05-05T22:07:28.269Z,20.69
2023-05-05T22:09:55.025Z,20.65
2023-05-05T22:12:25.070Z,20.65
2023-05-05T22:14:54.754Z,20.65
2023-05-05T22:17:26.585Z,20.66
2023-05-05T22:19:57.008Z,20.64
2023-05-05T22:22:29.790Z,20.66
2023-05-05T22:24:56.969Z,20.64
2023-05-05T22:27:24.624Z,20.64
2023-05-05T22:29:51.482Z,20.65
2023-05-05T22:32:18.252Z,20.59
2023-05-05T22:34:51.133Z,20.62
2023-05-05T22:37:18.222Z,20.61
2023-05-05T22:39:47.508Z,20.63
2023-05-05T22:42:17.412Z,20.63
2023-05-05T22:44:44.615Z,20.61
2023-05-05T22:47:14.788Z,20.61
2023-05-05T22:49:41.778Z,20.62
2023-05-05T22:52:14.846Z,20.59
2023-05-05T22:54:45.089Z,20.61
2023-05-05T22:57:13.445Z,20.60
2023-05-05T22:59:43.976Z,20.58
2023-05-05T23:02:14.226Z,20.59
2023-05-05T23:04:47.561Z,20.60
2023-05-05T23:07:18.238Z,20.57
2023-05-05T23:09:45.013Z,20.56
2023-05-05T23:12:13.797Z,20.56
2023-05-05T23:14:41.508Z,20.57
2023-05-05T23:17:14.146Z,20.58
2023-05-05T23:19:40.835Z,20.57
2023-05-05T23:22:08.459Z,20.56
2023-05-05T23:24:35.252Z,20.56
2023-05-05T23:27:02.089Z,20.56
2023-05-05T23:29:33.769Z,20.57
2023-05-05T23:32:03.237Z,20.58
2023-05-05T23:34:33.052Z,20.57
2023-05-05T23:36:59.809Z,20.55
2023-05-05T23:39:29.722Z,20.52
2023-05-05T23:41:57.145Z,20.54
2023-05-05T23:44:26.064Z,20.54
2023-05-05T23:46:55.945Z,20.51
2023-05-05T23:49:25.720Z,20.53
2023-05-05T23:51:58.732Z,20.53
2023-05-05T23:54:32.099Z,20.52
2023-05-05T23:57:01.775Z,20.52
2023-05-05T23:59:34.999Z,20.47
